createdAt,value
2022-10-05T00:00:58.975Z,6.25
2022-10-05T00:06:00.391Z,5.97
2022-10-05T00:11:02.162Z,6.15
2022-10-05T00:16:20.964Z,6.38
2022-10-05T00:21:27.004Z,6.75
2022-10-05T00:26:33.087Z,6.85
2022-10-05T00:31:36.114Z,7.28
2022-10-05T00:36:39.069Z,7.95
2022-10-05T00:41:55.176Z,6.88
2022-10-05T00:47:27.824Z,7.13
2022-10-05T00:52:39.988Z,7.22
2022-10-05T00:57:47.209Z,7.00
2022-10-05T01:02:56.629Z,6.63
2022-10-05T01:08:35.951Z,7.03
2022-10-05T01:13:58.319Z,6.72
2022-10-05T01:19:19.188Z,6.78
2022-10-05T01:24:39.077Z,6.28
2022-10-05T01:30:10.090Z,6.20
2022-10-05T01:35:48.034Z,7.70
2022-10-05T01:41:09.730Z,7.00
2022-10-05T01:46:25.412Z,6.88
2022-10-05T01:51:48.125Z,6.63
2022-10-05T01:57:06.908Z,6.85
2022-10-05T02:02:14.017Z,7.30
2022-10-05T02:07:23.144Z,6.70
2022-10-05T02:12:29.685Z,6.47
2022-10-05T02:17:38.638Z,7.05
2022-10-05T02:22:47.911Z,6.47
2022-10-05T02:27:57.622Z,5.93
2022-10-05T02:33:08.231Z,6.03
2022-10-05T02:38:17.237Z,6.20
2022-10-05T02:43:40.005Z,6.22
2022-10-05T02:49:03.614Z,6.30
2022-10-05T02:54:32.630Z,5.95
2022-10-05T02:59:33.957Z,5.88
2022-10-05T03:04:45.968Z,6.68
2022-10-05T03:10:09.464Z,6.13
2022-10-05T03:15:35.289Z,6.40
2022-10-05T03:20:46.822Z,6.30
2022-10-05T03:25:57.626Z,6.10
2022-10-05T03:31:13.001Z,6.80
2022-10-05T03:36:24.352Z,6.70
2022-10-05T03:41:35.495Z,7.35
2022-10-05T03:47:03.101Z,6.90
2022-10-05T03:52:29.242Z,8.40
2022-10-05T03:57:36.157Z,8.85
2022-10-05T04:02:48.481Z,8.90
2022-10-05T04:08:29.262Z,9.02
2022-10-05T04:13:38.349Z,12.90
2022-10-05T04:19:02.210Z,12.13
2022-10-05T04:24:11.849Z,18.00
2022-10-05T04:29:40.637Z,15.57
2022-10-05T04:34:56.932Z,17.38
2022-10-05T04:40:16.975Z,15.57
2022-10-05T04:45:36.392Z,16.40
2022-10-05T04:50:50.490Z,16.83
2022-10-05T04:55:52.171Z,15.98
2022-10-05T05:01:01.143Z,16.98
2022-10-05T05:06:28.677Z,16.80
2022-10-05T05:11:35.984Z,19.08
2022-10-05T05:16:43.585Z,16.38
2022-10-05T05:21:51.208Z,18.08
2022-10-05T05:27:02.416Z,16.73
2022-10-05T05:32:22.109Z,15.43
2022-10-05T05:37:34.064Z,15.65
2022-10-05T05:42:45.108Z,14.98
2022-10-05T05:47:53.720Z,14.55
2022-10-05T05:53:01.240Z,14.32
2022-10-05T05:58:21.878Z,14.55
2022-10-05T06:03:30.979Z,14.38
2022-10-05T06:08:41.132Z,14.75
2022-10-05T06:13:43.533Z,14.48
2022-10-05T06:18:51.434Z,13.05
2022-10-05T06:24:12.547Z,13.27
2022-10-05T06:29:21.955Z,15.48
2022-10-05T06:34:54.393Z,14.30
2022-10-05T06:40:07.914Z,17.58
2022-10-05T06:45:21.483Z,16.60
2022-10-05T06:50:25.869Z,15.00
2022-10-05T06:55:57.885Z,14.43
2022-10-05T07:01:11.911Z,15.48
2022-10-05T07:06:37.374Z,15.90
2022-10-05T07:12:05.554Z,16.38
2022-10-05T07:17:35.743Z,16.08
2022-10-05T07:22:54.963Z,15.60
2022-10-05T07:28:05.373Z,14.55
2022-10-05T07:33:13.687Z,14.38
2022-10-05T07:38:27.157Z,13.73
2022-10-05T07:44:01.635Z,13.20
2022-10-05T07:49:27.309Z,12.68
2022-10-05T07:54:45.104Z,13.15
2022-10-05T08:00:06.190Z,12.93
2022-10-05T08:05:22.164Z,15.15
2022-10-05T08:10:36.982Z,13.63
2022-10-05T08:15:44.688Z,13.98
2022-10-05T08:20:57.859Z,13.27
2022-10-05T08:26:11.325Z,13.98
2022-10-05T08:31:33.910Z,14.77
2022-10-05T08:37:07.036Z,15.38
2022-10-05T08:42:37.094Z,16.33
2022-10-05T08:48:14.953Z,16.45
2022-10-05T08:53:48.873Z,15.95
2022-10-05T08:59:25.837Z,14.48
2022-10-05T09:04:30.140Z,16.15
2022-10-05T09:10:00.796Z,17.45
2022-10-05T09:15:42.326Z,16.20
2022-10-05T09:21:08.456Z,17.02
2022-10-05T09:26:53.393Z,16.98
2022-10-05T09:37:22.625Z,16.38
2022-10-05T09:42:43.324Z,15.00
2022-10-05T09:48:04.373Z,15.60
2022-10-05T09:53:23.087Z,14.43
2022-10-05T09:58:48.159Z,14.15
2022-10-05T10:04:15.585Z,13.23
2022-10-05T10:10:07.840Z,14.18
2022-10-05T10:15:39.113Z,12.27
2022-10-05T10:20:43.396Z,13.50
2022-10-05T10:26:16.094Z,12.13
2022-10-05T10:31:35.596Z,10.93
2022-10-05T10:36:37.651Z,12.23
2022-10-05T10:42:06.810Z,10.43
2022-10-05T10:47:50.335Z,11.18
2022-10-05T10:52:59.747Z,9.95
2022-10-05T10:58:26.111Z,11.18
2022-10-05T11:03:59.115Z,12.27
2022-10-05T11:09:13.494Z,11.65
2022-10-05T11:14:42.838Z,11.30
2022-10-05T11:20:23.993Z,7.32
2022-10-05T11:25:57.404Z,5.97
2022-10-05T11:31:13.202Z,4.97
2022-10-05T11:36:23.580Z,4.10
2022-10-05T11:41:53.844Z,4.97
2022-10-05T11:47:11.901Z,5.75
2022-10-05T11:52:23.140Z,6.57
2022-10-05T11:57:48.553Z,5.57
2022-10-05T12:03:05.001Z,3.88
2022-10-05T12:08:12.569Z,3.60
2022-10-05T12:13:48.037Z,3.22
2022-10-05T12:19:19.471Z,3.38
2022-10-05T12:24:31.472Z,3.30
2022-10-05T12:29:50.672Z,2.42
2022-10-05T12:35:36.223Z,1.75
2022-10-05T12:40:51.550Z,2.20
2022-10-05T12:46:17.865Z,1.75
2022-10-05T12:51:22.287Z,2.00
2022-10-05T12:57:14.312Z,1.80
2022-10-05T13:02:30.370Z,1.80
2022-10-05T13:07:50.491Z,1.80
2022-10-05T13:18:31.994Z,2.00
2022-10-05T13:23:57.693Z,1.35
2022-10-05T13:29:17.607Z,1.40
2022-10-05T13:34:36.992Z,1.10
2022-10-05T13:40:16.673Z,1.10
2022-10-05T13:45:24.957Z,1.08
2022-10-05T13:50:32.682Z,1.40
2022-10-05T13:55:59.482Z,1.42
2022-10-05T14:01:43.005Z,1.10
2022-10-05T14:06:45.467Z,1.30
2022-10-05T14:11:50.463Z,1.20
2022-10-05T14:16:53.406Z,1.60
2022-10-05T14:22:12.949Z,1.38
2022-10-05T14:27:22.687Z,1.90
2022-10-05T14:32:27.714Z,1.50
2022-10-05T14:37:43.120Z,1.83
2022-10-05T14:42:47.331Z,2.40
2022-10-05T14:48:01.601Z,1.98
2022-10-05T14:53:02.868Z,2.30
2022-10-05T14:58:23.693Z,2.53
2022-10-05T15:03:43.124Z,2.50
2022-10-05T15:09:03.167Z,2.35
2022-10-05T15:14:19.853Z,2.25
2022-10-05T15:19:28.426Z,2.97
2022-10-05T15:24:52.384Z,3.38
2022-10-05T15:30:23.215Z,4.28
2022-10-05T15:35:36.909Z,3.65
2022-10-05T15:40:58.741Z,3.03
2022-10-05T15:46:10.404Z,2.88
2022-10-05T15:51:50.767Z,3.63
2022-10-05T15:56:59.200Z,3.20
2022-10-05T16:02:07.070Z,3.67
2022-10-05T16:07:35.192Z,3.20
2022-10-05T16:12:51.450Z,3.60
2022-10-05T16:18:34.092Z,3.22
2022-10-05T16:23:50.809Z,3.25
2022-10-05T16:29:02.140Z,3.83
2022-10-05T16:34:20.617Z,3.40
2022-10-05T16:39:44.880Z,3.58
2022-10-05T16:45:07.406Z,3.30
2022-10-05T16:50:19.869Z,3.63
2022-10-05T16:55:34.754Z,4.82
2022-10-05T17:01:07.860Z,5.22
2022-10-05T17:06:36.944Z,5.57
2022-10-05T17:11:47.223Z,5.53
2022-10-05T17:17:20.557Z,5.22
2022-10-05T17:22:46.346Z,5.83
2022-10-05T17:28:11.653Z,6.38
2022-10-05T17:33:14.216Z,5.65
2022-10-05T17:38:21.731Z,5.93
2022-10-05T17:43:26.526Z,7.07
2022-10-05T17:48:48.948Z,10.93
2022-10-05T17:54:08.764Z,7.75
2022-10-05T17:59:12.076Z,7.00
2022-10-05T18:04:13.316Z,7.40
2022-10-05T18:09:17.477Z,8.18
2022-10-05T18:14:24.573Z,8.77
2022-10-05T18:19:32.351Z,8.05
2022-10-05T18:24:45.433Z,6.88
2022-10-05T18:30:06.188Z,5.30
2022-10-05T18:35:19.927Z,4.57
2022-10-05T18:40:38.163Z,4.80
2022-10-05T18:46:19.142Z,3.80
2022-10-05T18:51:29.375Z,2.70
2022-10-05T18:56:50.895Z,2.60
2022-10-05T19:02:26.098Z,2.80
2022-10-05T19:08:01.104Z,2.95
2022-10-05T19:13:41.893Z,3.33
2022-10-05T19:19:09.466Z,3.58
2022-10-05T19:24:27.754Z,3.40
2022-10-05T19:29:38.006Z,3.47
2022-10-05T19:35:13.876Z,3.72
2022-10-05T19:40:24.312Z,3.30
2022-10-05T19:45:27.898Z,3.05
2022-10-05T19:50:33.480Z,2.58
2022-10-05T19:55:41.812Z,2.10
2022-10-05T20:00:45.682Z,2.42
2022-10-05T20:11:09.978Z,2.45
2022-10-05T20:16:45.440Z,2.70
2022-10-05T20:21:59.776Z,2.50
2022-10-05T20:32:08.710Z,2.05
2022-10-05T20:37:11.566Z,2.13
2022-10-05T20:42:12.915Z,1.98
2022-10-05T20:47:14.503Z,2.40
2022-10-05T20:52:15.768Z,1.73
2022-10-05T20:57:17.095Z,1.80
2022-10-05T21:02:19.457Z,1.75
2022-10-05T21:07:21.599Z,1.92
2022-10-05T21:12:22.912Z,1.60
2022-10-05T21:17:24.193Z,2.03
2022-10-05T21:22:25.653Z,2.22
2022-10-05T21:27:26.964Z,2.05
2022-10-05T21:32:28.266Z,1.90
2022-10-05T21:37:29.544Z,2.03
2022-10-05T21:42:31.193Z,2.13
2022-10-05T21:47:33.506Z,2.15
2022-10-05T21:52:35.668Z,1.90
2022-10-05T21:57:38.049Z,1.92
2022-10-05T22:02:39.526Z,2.38
2022-10-05T22:07:40.894Z,1.65
2022-10-05T22:12:42.580Z,2.50
2022-10-05T22:17:46.003Z,2.15
2022-10-05T22:22:47.621Z,2.28
2022-10-05T22:27:49.653Z,1.90
2022-10-05T22:32:50.993Z,2.30
2022-10-05T22:37:52.343Z,2.03
2022-10-05T22:42:53.633Z,1.83
2022-10-05T22:47:54.932Z,2.45
2022-10-05T22:52:56.251Z,2.50
2022-10-05T22:57:57.577Z,2.38
2022-10-05T23:03:00.990Z,2.35
2022-10-05T23:08:02.673Z,2.58
2022-10-05T23:13:04.881Z,2.33
2022-10-05T23:18:06.217Z,2.60
2022-10-05T23:23:07.539Z,2.75
2022-10-05T23:28:08.889Z,2.42
2022-10-05T23:33:10.282Z,2.40
2022-10-05T23:38:11.571Z,2.22
2022-10-05T23:43:13.025Z,2.42
2022-10-05T23:48:14.596Z,2.72
2022-10-05T23:53:17.422Z,2.67
2022-10-05T23:58:20.007Z,3.17
